• Join FlightAware (Why Join?)
  • Login
  • US Flag 
08:34PM EDT


 

Airport Tracker/Info


-or-


 

Live Flight TrackerFlight Track Log ✈ UAL139 ✈ 24-Oct-2013 ✈ KDEN - RJAA / NRT

Flight Track Log - Related Links

Times and Time Zones

All times are in EDT time to prevent confusion due to time zone crossing. See the UAL139 flight status page for this flight to view local times or setup timezone preferences in your user account.

Time Position Orientation Groundspeed Altitude Reporting Facility
EDT Latitude Longitude Course Direction KTS MPH feet Rate Location/Type
02:44PM 39.8640 -104.6960 270° West 135 155 5,000  Level FlightAware
02:45PM 39.9150 -104.6990 357° North 208 239 6,600 1,320 Climbing FlightAware
02:46PM 39.9520 -104.7080 349° North 264 304 7,100 1,560 Climbing FlightAware
02:46PM 39.9900 -104.7170 350° North 278 320 8,300 2,400 Climbing FlightAware
02:47PM 40.0300 -104.7270 349° North 284 327 9,600 1,560 Climbing FlightAware
02:48PM 40.1150 -104.7630 342° North 322 371 10,800 1,380 Climbing FlightAware
02:48PM 40.1520 -104.7810 340° North 333 383 11,700 900 Climbing FlightAware
02:49PM 40.2050 -104.8060 340° North 337 388 11,800 1,320 Climbing FlightAware
02:50PM 40.2580 -104.8310 340° North 342 394 13,400 2,640 Climbing FlightAware
02:50PM 40.3190 -104.8590 341° North 352 405 15,100 2,400 Climbing FlightAware
02:51PM 40.3750 -104.8850 341° North 364 419 16,400 2,220 Climbing FlightAware
02:52PM 40.4430 -104.9170 340° North 375 432 18,100 2,160 Climbing FlightAware
02:52PM 40.4930 -104.9400 341° North 384 442 19,100 2,040 Climbing FlightAware
02:53PM 40.5600 -104.9720 340° North 393 452 20,500 1,980 Climbing FlightAware
02:53PM 40.6280 -105.0030 341° North 403 464 21,700 1,920 Climbing FlightAware
02:54PM 40.6900 -105.0330 340° North 411 473 22,900 1,800 Climbing FlightAware
02:55PM 40.7880 -105.0940 335° Northwest 420 483 24,500 1,320 Climbing FlightAware
02:56PM 40.8440 -105.1570 320° Northwest 438 504 25,000 1,080 Climbing FlightAware
02:56PM 40.8990 -105.2190 320° Northwest 448 516 25,800 1,500 Climbing FlightAware
02:57PM 40.9680 -105.2970 320° Northwest 455 524 27,000 1,560 Climbing FlightAware
02:57PM 41.0200 -105.3560 319° Northwest 460 529 27,800 1,380 Climbing FlightAware
02:58PM 41.0710 -105.4150 319° Northwest 465 535 28,500 1,260 Climbing FlightAware
02:59PM 41.1500 -105.5050 319° Northwest 472 543 29,600 1,260 Climbing FlightAware
02:59PM 41.1940 -105.5560 319° Northwest 478 550 30,100 1,080 Climbing FlightAware
03:00PM 41.2990 -105.6760 319° Northwest 488 562 31,200 1,080 Climbing FlightAware
03:01PM 41.3470 -105.7380 316° Northwest 492 566 31,800 1,020 Climbing FlightAware
03:01PM 41.4000 -105.8180 311° West 495 570 32,400 1,320 Climbing FlightAware
03:02PM 41.5040 -105.9820 310° West 487 560 34,200 1,440 Climbing FlightAware
03:03PM 41.5380 -106.0340 311° West 486 559 34,700 1,140 Climbing FlightAware
03:04PM 41.6090 -106.1470 310° West 485 558 35,600 660 Climbing FlightAware
03:05PM 41.6980 -106.2870 310° West 483 556 36,000 180 Climbing FlightAware
03:05PM 41.7570 -106.3810 310° West 483 556 36,000  Level FlightAware
03:06PM 41.7930 -106.4410 309° West 482 555 36,000  Level FlightAware
03:07PM 41.8770 -106.5800 309° West 482 555 36,000  Level FlightAware
03:08PM 41.9470 -106.6970 309° West 482 555 36,000  Level FlightAware
03:09PM 41.9910 -106.7700 309° West 482 555 36,000  Level FlightAware
03:09PM 42.0320 -106.8370 309° West 482 555 36,000  Level FlightAware
03:10PM 42.0760 -106.9110 309° West 482 555 36,000  Level FlightAware
03:10PM 42.1190 -106.9820 309° West 482 555 36,000  Level FlightAware
03:11PM 42.1620 -107.0540 309° West 482 555 36,000  Level FlightAware
03:12PM 42.2120 -107.1370 309° West 482 555 36,000  Level FlightAware
03:12PM 42.2550 -107.2090 309° West 482 555 36,000  Level FlightAware
03:13PM 42.3100 -107.3000 309° West 482 555 36,000  Level FlightAware
03:14PM 42.3530 -107.3720 309° West 482 555 36,000  Level FlightAware
03:14PM 42.3960 -107.4440 309° West 482 555 36,000  Level FlightAware
03:15PM 42.4530 -107.5400 309° West 482 555 36,000  Level FlightAware
03:15PM 42.4670 -107.5640 308° West 482 555 36,000 360 Level FlightAware
03:16PM 42.6894 -107.9053 308° West 484 557 36,500 720 Climbing Salt Lake Center
03:17PM 42.7811 -108.0619 309° West 481 554 37,600 720 Climbing Salt Lake Center
03:18PM 42.8583 -108.1939 309° West 472 543 38,000 180 Climbing Salt Lake Center
03:20PM 42.9381 -108.3264 309° West 471 542 38,000  Level Salt Lake Center
03:21PM 43.0197 -108.4686 308° West 472 543 38,000  Level Salt Lake Center
03:22PM 43.1181 -108.6364 309° West 471 542 38,000  Level Salt Lake Center
03:23PM 43.2003 -108.7781 309° West 473 544 38,000  Level Salt Lake Center
03:24PM 43.2825 -108.9186 309° West 472 543 38,000  Level Salt Lake Center
03:25PM 43.3628 -109.0625 308° West 475 547 38,000  Level Salt Lake Center
03:26PM 43.4444 -109.2031 309° West 472 543 38,000  Level Salt Lake Center
03:28PM 43.6111 -109.4964 308° West 475 547 38,000  Level Salt Lake Center
03:29PM 43.7003 -109.6556 308° West 470 541 38,000  Level Salt Lake Center
03:30PM 43.7781 -109.7947 308° West 474 545 38,000  Level Salt Lake Center
03:35PM 44.1990 -110.5520 308° West 474 545 38,000  Level FlightAware
03:36PM 44.2990 -110.7370 307° West 474 545 38,000  Level FlightAware
03:37PM 44.3410 -110.8140 307° West 475 547 38,000  Level FlightAware
03:37PM 44.3850 -110.8970 307° West 475 547 38,000  Level FlightAware
03:38PM 44.4400 -110.9980 307° West 475 547 38,000  Level FlightAware
03:39PM 44.5340 -111.1740 307° West 475 547 38,000  Level FlightAware
03:40PM 44.5650 -111.2320 307° West 475 547 38,000  Level FlightAware
03:41PM 44.6430 -111.3800 307° West 475 547 38,000  Level FlightAware
03:41PM 44.6960 -111.4800 307° West 475 547 38,000  Level FlightAware
03:42PM 44.7370 -111.5580 307° West 474 545 38,000  Level FlightAware
03:42PM 44.7860 -111.6510 307° West 475 547 38,000  Level FlightAware
03:43PM 44.8320 -111.7390 306° West 476 548 38,000  Level FlightAware
03:44PM 44.9130 -111.8950 306° West 476 548 38,000  Level FlightAware
03:45PM 44.9630 -111.9910 306° West 476 548 38,000  Level FlightAware
03:46PM 45.0530 -112.1640 306° West 477 549 38,000  Level FlightAware
03:46PM 45.1010 -112.2580 306° West 477 549 38,000  Level FlightAware
03:47PM 45.1510 -112.3550 306° West 477 549 38,000  Level FlightAware
03:48PM 45.1900 -112.4350 305° West 477 549 38,000  Level FlightAware
03:49PM 45.2820 -112.6130 306° West 478 550 38,000  Level FlightAware
03:49PM 45.3310 -112.7140 305° West 478 550 38,000  Level FlightAware
03:50PM 45.3860 -112.8250 305° West 478 550 38,000  Level FlightAware
03:51PM 45.4270 -112.9080 305° West 478 550 38,000  Level FlightAware
03:51PM 45.4670 -112.9890 305° West 478 550 38,000  Level FlightAware
03:52PM 45.5110 -113.0790 305° West 479 551 38,000  Level FlightAware
03:53PM 45.5750 -113.2150 304° West 479 551 38,000  Level FlightAware
03:53PM 45.6130 -113.2950 304° West 479 551 38,000  Level FlightAware
03:54PM 45.7150 -113.4990 306° West 480 552 38,000  Level FlightAware
03:55PM 45.7630 -113.5980 305° West 480 552 38,000  Level FlightAware
03:56PM 45.7880 -113.6510 304° West 479 551 38,000  Level FlightAware
03:57PM 45.8840 -113.8520 305° West 480 552 38,000  Level FlightAware
03:57PM 45.9280 -113.9440 305° West 482 555 38,000  Level FlightAware
03:58PM 45.9940 -114.0840 304° West 482 555 38,000  Level FlightAware
03:59PM 46.0340 -114.1700 304° West 482 555 38,000  Level FlightAware
04:00PM 46.0730 -114.2540 304° West 482 555 38,000  Level FlightAware
04:00PM 46.1340 -114.3820 305° West 480 552 38,000  Level FlightAware
04:01PM 46.1730 -114.4690 303° West 480 552 38,000  Level FlightAware
04:01PM 46.2110 -114.5540 303° West 480 552 38,000  Level FlightAware
04:02PM 46.2480 -114.6360 303° West 480 552 38,000  Level FlightAware
04:02PM 46.2740 -114.6930 303° West 480 552 38,000  Level FlightAware
04:03PM 46.3090 -114.7710 303° West 480 552 38,000  Level FlightAware
04:04PM 46.3490 -114.8610 303° West 480 552 38,000  Level FlightAware
04:04PM 46.3860 -114.9430 303° West 480 552 38,000  Level FlightAware
04:05PM 46.4230 -115.0260 303° West 480 552 38,000  Level FlightAware
04:05PM 46.4610 -115.1110 303° West 480 552 38,000  Level FlightAware
04:06PM 46.4990 -115.1960 303° West 480 552 38,000  Level FlightAware
04:07PM 46.5370 -115.2810 303° West 480 552 38,000  Level FlightAware
04:08PM 46.6000 -115.4220 303° West 480 552 38,000  Level FlightAware
04:08PM 46.6400 -115.5120 303° West 480 552 38,000  Level FlightAware
04:09PM 46.6760 -115.5920 303° West 480 552 38,000  Level FlightAware
04:10PM 46.7260 -115.7050 303° West 480 552 38,000  Level FlightAware
04:10PM 46.7390 -115.7330 304° West 480 552 38,000  Level FlightAware
04:11PM 46.9242 -116.1303 304° West 483 556 38,000  Level Seattle Center
04:12PM 46.9972 -116.2950 303° West 484 557 38,000  Level Seattle Center
04:13PM 47.0692 -116.4625 302° West 485 558 38,000 -60 Level Seattle Center
04:14PM 47.1411 -116.6281 303° West 483 556 37,900  Descending Seattle Center
04:15PM 47.2139 -116.7961 303° West 486 559 38,000  Climbing Seattle Center
04:16PM 47.2853 -116.9642 302° West 482 555 37,900  Descending Seattle Center
04:17PM 47.3583 -117.1361 302° West 489 563 38,000  Climbing Seattle Center
04:18PM 47.4311 -117.3089 302° West 487 560 37,900  Descending Seattle Center
04:24PM 47.8480 -118.3290 302° West 481 554 38,000  Climbing FlightAware
04:25PM 47.9140 -118.4980 300° West 479 551 38,000  Level FlightAware
04:26PM 47.9910 -118.6940 300° West 480 552 38,000  Level FlightAware
04:27PM 48.0350 -118.8050 301° West 481 554 38,000  Level FlightAware
04:27PM 48.0710 -118.8990 300° West 479 551 38,000  Level FlightAware
04:28PM 48.1130 -119.0060 300° West 480 552 38,000  Level FlightAware
04:28PM 48.1570 -119.1210 300° West 479 551 38,000  Level FlightAware
04:29PM 48.1899 -119.2060 300° West 480 552 38,000  Level FlightAware ADS-B
04:30PM 48.2265 -119.3010 300° West 480 552 38,000  Level FlightAware ADS-B
04:30PM 48.2626 -119.3960 300° West 480 552 38,000  Level FlightAware ADS-B
04:31PM 48.2966 -119.4850 300° West 480 552 38,000  Level FlightAware ADS-B
04:31PM 48.3295 -119.5720 300° West 480 552 38,000  Level FlightAware ADS-B
04:32PM 48.3767 -119.6960 300° West 480 552 38,000  Level FlightAware ADS-B
04:32PM 48.3810 -119.7079 299° West 476 548 38,000  Level FlightAware ADS-B (CYWH)
04:32PM 48.4097 -119.7840 300° West 481 554 38,000  Level FlightAware ADS-B
04:32PM 48.4158 -119.8003 299° West 478 550 38,000  Level FlightAware ADS-B (CYWH)
04:33PM 48.4426 -119.8720 299° West 481 554 38,000  Level FlightAware ADS-B
04:33PM 48.4629 -119.9260 300° West 477 549 38,000  Level FlightAware ADS-B (CYWH)
04:33PM 48.4763 -119.9620 299° West 480 552 38,000  Level FlightAware ADS-B
04:34PM 48.4956 -120.0137 299° West 475 547 38,000  Level FlightAware ADS-B (CYWH)
04:34PM 48.5090 -120.0500 299° West 478 550 38,000  Level FlightAware ADS-B
04:34PM 48.5303 -120.1070 299° West 475 547 38,000  Level FlightAware ADS-B (CYWH)
04:34PM 48.5502 -120.1610 299° West 478 550 38,000  Level FlightAware ADS-B
04:35PM 48.5846 -120.2536 299° West 475 547 38,000  Level FlightAware ADS-B (CYWH)
04:35PM 48.6113 -120.3260 299° West 479 551 38,000  Level FlightAware ADS-B
04:36PM 48.6231 -120.3579 299° West 476 548 38,000  Level FlightAware ADS-B (CYWH)
04:36PM 48.6450 -120.4180 299° West 480 552 38,000  Level FlightAware ADS-B
04:36PM 48.6587 -120.4549 299° West 475 547 38,000  Level FlightAware ADS-B (CYWH)
04:36PM 48.6782 -120.5080 299° West 480 552 38,000  Level FlightAware ADS-B
04:37PM 48.6703 -120.4865 119° Southeast 479 551 38,000  Level FlightAware ADS-B (EPKK / KRK)
04:37PM 48.7124 -120.6020 299° West 480 552 38,000  Level FlightAware ADS-B
04:37PM 48.7398 -120.6772 299° West 477 549 38,000  Level FlightAware ADS-B (CYWH)
04:38PM 48.7449 -120.6910 299° West 481 554 38,000  Level FlightAware ADS-B
04:38PM 48.7781 -120.7830 299° West 482 555 38,000  Level FlightAware ADS-B
04:39PM 48.8091 -120.8686 299° West 483 556 38,000  Level FlightAware ADS-B (EPKK / KRK)
04:39PM 48.8119 -120.8760 300° West 483 556 38,000  Level FlightAware ADS-B
04:39PM 48.8423 -120.9604 299° West 482 555 38,000  Level FlightAware ADS-B (EPKK / KRK)
04:39PM 48.8565 -120.9990 299° West 482 555 38,000  Level FlightAware ADS-B
04:40PM 48.8756 -121.0473 301° West 482 555 38,000  Level FlightAware ADS-B (EPKK / KRK)
04:40PM 48.8872 -121.0769 301° West 478 550 38,000  Level FlightAware ADS-B (CYWH)
04:40PM 48.8961 -121.0990 301° West 482 555 38,000  Level FlightAware ADS-B
04:40PM 48.9153 -121.1488 300° West 481 554 38,000  Level FlightAware ADS-B (EPKK / KRK)
04:40PM 48.9345 -121.1980 301° West 480 552 38,000  Level FlightAware ADS-B
04:41PM 48.9573 -121.2574 300° West 480 552 38,000  Level FlightAware ADS-B (CYWH)
04:41PM 48.9683 -121.2860 300° West 480 552 38,000  Level FlightAware ADS-B
04:41PM 48.9918 -121.3477 300° West 481 554 38,000  Level FlightAware ADS-B (CYWH)
04:41PM 49.0025 -121.3760 300° West 480 552 38,000  Level FlightAware ADS-B
04:42PM 49.0259 -121.4376 300° West 478 550 38,000  Level FlightAware ADS-B (EPKK / KRK)
04:42PM 49.0361 -121.4640 300° West 478 550 38,000  Level FlightAware ADS-B
04:42PM 49.0613 -121.5312 300° West 472 543 38,000  Level FlightAware ADS-B (CYWH)
04:42PM 49.0696 -121.5530 300° West 476 548 38,000  Level FlightAware ADS-B
04:43PM 49.1029 -121.6410 300° West 477 549 38,000  Level FlightAware ADS-B
04:43PM 49.1093 -121.6584 299° West 478 550 38,000  Level FlightAware ADS-B (EPKK / KRK)
04:43PM 49.1160 -121.6765 300° West 474 545 38,000  Level FlightAware ADS-B (CYCD)
04:43PM 49.1377 -121.7340 300° West 478 550 38,000  Level FlightAware ADS-B
04:44PM 49.1486 -121.7634 300° West 473 544 38,000  Level FlightAware ADS-B (CYWH)
04:44PM 49.1556 -121.7821 300° West 473 544 38,000  Level FlightAware ADS-B (CYCD)
04:44PM 49.1663 -121.8107 300° West 473 544 38,000  Level FlightAware ADS-B (CYCD)
04:44PM 49.1709 -121.8230 300° West 477 549 38,000  Level FlightAware ADS-B
04:44PM 49.1779 -121.8416 300° West 472 543 38,000  Level FlightAware ADS-B (CYCD)
04:44PM 49.1890 -121.8713 300° West 471 542 38,000  Level FlightAware ADS-B (CYCD)
04:44PM 49.1987 -121.8974 300° West 472 543 38,000  Level FlightAware ADS-B (CYWH)
04:45PM 49.2100 -121.9280 299° West 475 547 38,000  Level FlightAware ADS-B
04:45PM 49.2358 -121.9970 300° West 475 547 38,000  Level FlightAware ADS-B (EPKK / KRK)
04:45PM 49.2428 -122.0160 299° West 476 548 38,000  Level FlightAware ADS-B
04:45PM 49.2569 -122.0536 300° West 472 543 38,000  Level FlightAware ADS-B (CYCD)
04:45PM 49.2675 -122.0823 300° West 473 544 38,000  Level FlightAware ADS-B (CYCD)
04:46PM 49.2788 -122.1128 300° West 473 544 38,000  Level FlightAware ADS-B (CYCD)
04:46PM 49.2911 -122.1460 300° West 476 548 38,000  Level FlightAware ADS-B
04:46PM 49.3046 -122.1823 300° West 476 548 38,000  Level FlightAware ADS-B (EPKK / KRK)
04:46PM 49.3235 -122.2340 299° West 475 547 38,000  Level FlightAware ADS-B
04:47PM 49.3394 -122.2770 300° West 474 545 38,000  Level FlightAware ADS-B (EPKK / KRK)
04:47PM 49.3617 -122.3380 299° West 473 544 38,000  Level FlightAware ADS-B
04:47PM 49.3798 -122.3871 300° West 472 543 38,000  Level FlightAware ADS-B (CYWH)
04:47PM 49.3852 -122.4017 299° West 469 540 38,000  Level FlightAware ADS-B (CYWH)
04:48PM 49.4072 -122.4619 299° West 469 540 38,000  Level FlightAware ADS-B (CYCD)
04:48PM 49.4170 -122.4888 299° West 469 540 38,000  Level FlightAware ADS-B (CYCD)
04:48PM 49.4276 -122.5181 299° West 469 540 38,000  Level FlightAware ADS-B (CYCD)
04:48PM 49.4385 -122.5479 299° West 469 540 38,000  Level FlightAware ADS-B (CYCD)
04:48PM 49.4472 -122.5720 299° West 473 544 38,000  Level FlightAware ADS-B
04:49PM 49.4681 -122.6292 299° West 474 545 38,000  Level FlightAware ADS-B (CYWH)
04:49PM 49.4806 -122.6640 299° West 473 544 38,000  Level FlightAware ADS-B
04:49PM 49.5021 -122.7232 299° West 475 547 38,000  Level FlightAware ADS-B (EPKK / KRK)
04:49PM 49.5161 -122.7620 299° West 474 545 38,000  Level FlightAware ADS-B
04:50PM 49.5288 -122.7973 299° West 473 544 38,000  Level FlightAware ADS-B (EPKK / KRK)
04:50PM 49.5479 -122.8500 299° West 474 545 38,000  Level FlightAware ADS-B
04:50PM 49.5688 -122.9085 299° West 474 545 38,000  Level FlightAware ADS-B (EPKK / KRK)
04:50PM 49.5800 -122.9400 299° West 475 547 38,000  Level FlightAware ADS-B
04:51PM 49.6042 -123.0072 299° West 475 547 38,000  Level FlightAware ADS-B (CYCD)
04:51PM 49.6215 -123.0560 299° West 475 547 38,000  Level FlightAware ADS-B
04:51PM 49.6349 -123.0933 299° West 478 550 38,000  Level FlightAware ADS-B (EPKK / KRK)
04:52PM 49.6664 -123.1817 299° West 480 552 38,000  Level FlightAware ADS-B (EPKK / KRK)
04:52PM 49.6901 -123.2484 299° West 482 555 38,000  Level FlightAware ADS-B (EPKK / KRK)
04:53PM 49.7222 -123.3393 299° West 482 555 38,000  Level FlightAware ADS-B (EPKK / KRK)
04:53PM 49.7603 -123.4476 299° West 479 551 38,000  Level FlightAware ADS-B (CYWH)
04:54PM 49.7931 -123.5412 299° West 478 550 38,000  Level FlightAware ADS-B (CYWH)
04:54PM 49.8262 -123.6357 298° West 481 554 38,000  Level FlightAware ADS-B (CYWH)
04:55PM 49.8569 -123.7238 298° West 479 551 38,000  Level FlightAware ADS-B (EPKK / KRK)
04:55PM 49.8861 -123.8084 298° West 480 552 38,000  Level FlightAware ADS-B (EPKK / KRK)
04:56PM 49.9218 -123.9114 298° West 482 555 38,000  Level FlightAware ADS-B (EPKK / KRK)
04:56PM 49.9585 -124.0179 298° West 483 556 38,000  Level FlightAware ADS-B (CYCD)
04:57PM 49.9934 -124.1197 298° West 481 554 38,000  Level FlightAware ADS-B (EPKK / KRK)
04:58PM 50.0357 -124.2438 298° West 480 552 38,000  Level FlightAware ADS-B (EPKK / KRK)
04:58PM 50.0517 -124.2906 298° West 480 552 38,000  Level FlightAware ADS-B (EPKK / KRK)
04:59PM 50.0904 -124.4046 298° West 480 552 38,000  Level FlightAware ADS-B (EPKK / KRK)
05:00PM 50.1773 -124.6629 298° West 482 555 38,000  Level FlightAware ADS-B (CYCD)
05:00PM 50.2226 -124.7870 300° West 478 550 38,000  Level FlightAware ADS-B (CYCD)
05:01PM 50.2699 -124.9010 303° West 479 551 38,000  Level FlightAware ADS-B (CYCD)
05:02PM 50.3067 -124.9899 303° West 483 556 38,000  Level FlightAware ADS-B (CYCD)
05:02PM 50.3442 -125.0807 303° West 484 557 38,000  Level FlightAware ADS-B (CYCD)
05:03PM 50.3808 -125.1694 303° West 484 557 38,000  Level FlightAware ADS-B (CYCD)
05:03PM 50.4267 -125.2813 303° West 484 557 38,000  Level FlightAware ADS-B (CYCD)
05:04PM 50.4666 -125.3792 303° West 483 556 38,000  Level FlightAware ADS-B (CYCD)
05:04PM 50.5152 -125.4987 303° West 482 555 38,000  Level FlightAware ADS-B (CYCD)
05:05PM 50.5621 -125.6143 303° West 482 555 38,000  Level FlightAware ADS-B (CYCD)
05:06PM 50.6101 -125.7330 303° West 483 556 38,000  Level FlightAware ADS-B (CYCD)
05:06PM 50.6472 -125.8254 302° West 482 555 38,000  Level FlightAware ADS-B (CYCD)
05:07PM 50.6864 -125.9234 302° West 483 556 38,000  Level FlightAware ADS-B (CYCD)
05:08PM 50.7400 -126.0583 302° West 486 559 38,000  Level FlightAware ADS-B (CYCD)
05:09PM 50.8130 -126.2380 303° West 488 562 38,000  Level FlightAware
05:10PM 50.8760 -126.3910 303° West 488 562 38,000  Level FlightAware
05:10PM 50.9140 -126.4830 303° West 488 562 38,000  Level FlightAware
05:11PM 50.9670 -126.6130 303° West 488 562 38,000  Level FlightAware
05:12PM 51.0300 -126.7670 303° West 488 562 38,000  Level FlightAware
05:13PM 51.0670 -126.8590 303° West 488 562 38,000  Level FlightAware
05:14PM 51.1170 -126.9820 303° West 488 562 38,000  Level FlightAware
05:14PM 51.1570 -127.0800 303° West 488 562 38,000  Level FlightAware
05:15PM 51.2200 -127.2340 303° West 488 562 38,000  Level FlightAware
05:16PM 51.2560 -127.3240 303° West 488 562 38,000  Level FlightAware
05:17PM 51.2940 -127.4160 303° West 488 562 38,000  Level FlightAware
05:18PM 51.3580 -127.5730 303° West 488 562 38,000  Level FlightAware
05:18PM 51.4500 -127.9833 303° West 480 552 38,000  Level Vancouver Center
05:19PM 51.5167 -128.1500 303° West 480 552 38,000  Level Vancouver Center
05:20PM 51.5833 -128.3333 300° West 480 552 38,000  Level Vancouver Center
05:21PM 51.6500 -128.5333 298° West 480 552 38,000  Level Vancouver Center
05:22PM 51.7167 -128.7333 298° West 480 552 38,000  Level Vancouver Center
05:23PM 51.7833 -128.9000 303° West 480 552 38,000  Level Vancouver Center
05:24PM 51.8667 -129.0667 309° West 480 552 38,000  Level Vancouver Center
05:25PM 51.9167 -129.2667 292° West 480 552 38,000  Level Vancouver Center
05:26PM 52.0000 -129.4667 304° West 480 552 38,000  Level Vancouver Center
05:27PM 52.0500 -129.6667 292° West 480 552 38,000  Level Vancouver Center
05:28PM 52.1167 -129.8333 303° West 480 552 38,000  Level Vancouver Center
05:29PM 52.1833 -130.0333 299° West 480 552 38,000  Level Vancouver Center
05:30PM 52.2500 -130.2333 299° West 480 552 38,000  Level Vancouver Center
05:31PM 52.3167 -130.4167 301° West 480 552 38,000  Level Vancouver Center
05:32PM 52.3833 -130.6167 299° West 480 552 38,000  Level Vancouver Center
05:33PM 52.4333 -130.7833 296° West 480 552 38,000  Level Vancouver Center
05:34PM 52.5167 -131.0000 302° West 480 552 38,000  Level Vancouver Center
05:35PM 52.5667 -131.2000 292° West 480 552 38,000  Level Vancouver Center
05:36PM 52.6167 -131.3667 296° West 480 552 38,000  Level Vancouver Center
05:37PM 52.7000 -131.5667 305° West 480 552 38,000  Level Vancouver Center
05:38PM 52.7500 -131.7833 291° West 480 552 38,000  Level Vancouver Center
05:39PM 52.8167 -131.9833 299° West 480 552 38,000  Level Vancouver Center
05:40PM 52.8667 -132.1667 294° West 480 552 38,000  Level Vancouver Center
05:41PM 52.9333 -132.3667 299° West 480 552 38,000  Level Vancouver Center
05:42PM 53.0000 -132.5833 297° West 480 552 38,000  Level Vancouver Center
05:43PM 53.0500 -132.7500 297° West 480 552 38,000  Level Vancouver Center
05:44PM 53.1167 -132.9667 297° West 480 552 38,000  Level Vancouver Center
05:45PM 53.1667 -133.1500 295° West 480 552 38,000  Level Vancouver Center
05:46PM 53.2333 -133.3500 299° West 480 552 38,000  Level Vancouver Center
05:47PM 53.2833 -133.5667 291° West 480 552 38,000  Level Vancouver Center
05:48PM 53.3333 -133.7500 295° West 480 552 38,000  Level Vancouver Center
05:49PM 53.4000 -133.9500 299° West 480 552 38,000  Level Vancouver Center
05:50PM 53.4500 -134.1333 295° West 480 552 38,000  Level Vancouver Center
05:51PM 53.5167 -134.3500 297° West 470 541 38,000  Level Vancouver Center
05:52PM 53.5667 -134.5333 295° West 470 541 38,000  Level Vancouver Center
05:53PM 53.6167 -134.7500 291° West 470 541 38,000  Level Vancouver Center
05:54PM 53.6833 -134.9333 302° West 470 541 38,000  Level Vancouver Center
05:55PM 53.7333 -135.1500 291° West 470 541 38,000  Level Vancouver Center
05:56PM 53.7833 -135.3500 293° West 470 541 38,000  Level Vancouver Center
05:57PM 53.8333 -135.5333 295° West 470 541 38,000  Level Vancouver Center
05:58PM 53.9000 -135.7333 300° West 470 541 38,000  Level Vancouver Center
05:59PM 53.9500 -135.9500 291° West 470 541 38,000  Level Vancouver Center
06:00PM 54.0167 -136.1667 298° West 470 541 38,000  Level Vancouver Center
06:01PM 54.0833 -136.3333 304° West 470 541 38,000  Level Vancouver Center
06:02PM 54.1333 -136.5500 292° West 470 541 38,000  Level Vancouver Center
06:03PM 54.1833 -136.7000 300° West 470 541 38,000  Level Vancouver Center
06:04PM 54.2500 -136.9333 296° West 470 541 38,000  Level Vancouver Center
06:05PM 54.3167 -137.1167 302° West 470 541 38,000  Level Vancouver Center
06:06PM 54.3833 -137.3167 300° West 470 541 38,000  Level Vancouver Center
06:07PM 54.4333 -137.4833 297° West 470 541 38,000  Level Vancouver Center
06:08PM 54.4833 -137.6667 295° West 470 541 38,000  Level Vancouver Center
06:09PM 54.5500 -137.8667 300° West 470 541 38,000  Level Vancouver Center
06:10PM 54.6167 -138.0667 300° West 470 541 38,000  Level Vancouver Center
06:11PM 54.6667 -138.2667 293° West 470 541 38,000  Level Vancouver Center
06:12PM 54.7333 -138.4833 298° West 470 541 38,000  Level Vancouver Center
06:13PM 54.8000 -138.6833 300° West 470 541 38,000  Level Vancouver Center
06:14PM 54.8500 -138.8833 294° West 470 541 38,000  Level Vancouver Center
06:15PM 54.9000 -139.0833 294° West 460 529 38,000  Level Vancouver Center
06:16PM 54.9500 -139.2833 294° West 460 529 38,000  Level Vancouver Center
06:17PM 55.0167 -139.4833 300° West 460 529 38,000  Level Vancouver Center
06:18PM 55.0500 -139.5167 330° Northwest 460 529 38,000  Level Anchorage Center
06:18PM 55.0667 -139.6833 280° West 460 529 38,000  Level Vancouver Center
06:19PM 55.1333 -139.8833 300° West 470 541 38,000  Level Vancouver Center
06:20PM 55.1667 -139.9167 330° Northwest 450 518 38,000  Level Anchorage Center
06:21PM 55.2167 -140.1167 294° West 450 518 38,000  Level Anchorage Center
06:22PM 55.2833 -140.3167 300° West 460 529 38,000  Level Anchorage Center
06:23PM 55.3333 -140.5167 294° West 460 529 38,000  Level Anchorage Center
06:24PM 55.3833 -140.7167 294° West 450 518 38,000  Level Anchorage Center
06:25PM 55.4333 -140.9167 294° West 430 495 38,000  Level Anchorage Center
06:26PM 55.4833 -141.1167 294° West 440 506 38,000  Level Anchorage Center
06:27PM 55.5333 -141.3167 294° West 440 506 38,000  Level Anchorage Center
06:28PM 55.5833 -141.5167 294° West 440 506 38,000  Level Anchorage Center
06:29PM 55.6500 -141.7167 301° West 440 506 38,000  Level Anchorage Center
06:30PM 55.6833 -141.9167 287° West 440 506 38,000  Level Anchorage Center
06:31PM 55.7500 -142.1333 299° West 440 506 38,000  Level Anchorage Center
06:32PM 55.8000 -142.3333 294° West 440 506 38,000  Level Anchorage Center
06:33PM 55.8500 -142.5333 294° West 440 506 38,000  Level Anchorage Center
06:34PM 55.8833 -142.7167 288° West 430 495 38,000  Level Anchorage Center
06:35PM 55.9333 -142.9167 294° West 430 495 38,000  Level Anchorage Center
06:36PM 55.9833 -143.1000 296° West 430 495 38,000  Level Anchorage Center
06:37PM 56.0333 -143.3167 293° West 430 495 38,000  Level Anchorage Center
06:38PM 56.0667 -143.5167 287° West 430 495 38,000  Level Anchorage Center
06:39PM 56.1167 -143.7000 296° West 430 495 38,000  Level Anchorage Center
06:40PM 56.1667 -143.9167 293° West 430 495 38,000  Level Anchorage Center
06:41PM 56.2167 -144.1167 294° West 430 495 38,000  Level Anchorage Center
06:42PM 56.2667 -144.3167 294° West 430 495 38,000  Level Anchorage Center
06:43PM 56.3000 -144.5167 287° West 430 495 38,000  Level Anchorage Center
06:44PM 56.3500 -144.7167 294° West 430 495 38,000  Level Anchorage Center
06:45PM 56.4000 -144.9333 293° West 430 495 38,000  Level Anchorage Center
06:46PM 56.4333 -145.1333 287° West 440 506 38,000  Level Anchorage Center
06:47PM 56.4833 -145.3333 294° West 430 495 38,100 480 Climbing Anchorage Center
06:48PM 56.5333 -145.5333 294° West 430 495 39,000 540 Climbing Anchorage Center
06:49PM 56.5667 -145.7500 286° West 430 495 39,300 480 Climbing Anchorage Center
06:50PM 56.6167 -145.9500 295° West 440 506 40,000 300 Climbing Anchorage Center
06:51PM 56.6500 -146.1667 286° West 440 506 40,000  Level Anchorage Center
06:52PM 56.7000 -146.3833 293° West 440 506 40,000  Level Anchorage Center
06:53PM 56.7500 -146.5833 295° West 440 506 40,000  Level Anchorage Center
06:54PM 56.7833 -146.8000 286° West 450 518 40,000  Level Anchorage Center
06:55PM 56.8333 -147.0333 291° West 450 518 40,000  Level Anchorage Center
06:56PM 56.8667 -147.2333 287° West 450 518 40,000  Level Anchorage Center
06:57PM 56.9167 -147.4500 293° West 440 506 40,000  Level Anchorage Center
06:58PM 56.9500 -147.6667 286° West 440 506 40,000  Level Anchorage Center
06:59PM 57.0000 -147.8833 293° West 430 495 40,000  Level Anchorage Center
07:00PM 57.0333 -148.1000 286° West 440 506 40,000  Level Anchorage Center
07:01PM 57.0667 -148.3167 286° West 450 518 40,000  Level Anchorage Center
07:02PM 57.1167 -148.5500 292° West 460 529 40,000  Level Anchorage Center
07:03PM 57.1500 -148.7667 286° West 450 518 40,000  Level Anchorage Center
07:04PM 57.2000 -148.9833 293° West 450 518 40,000  Level Anchorage Center
07:05PM 57.2333 -149.2167 285° West 450 518 40,000  Level Anchorage Center
07:06PM 57.2667 -149.4333 286° West 450 518 40,000  Level Anchorage Center
07:07PM 57.3167 -149.6667 292° West 450 518 40,000  Level Anchorage Center
07:08PM 57.3500 -149.8833 286° West 460 529 40,000  Level Anchorage Center
07:09PM 57.3833 -150.1167 285° West 460 529 40,000  Level Anchorage Center
07:10PM 57.4333 -150.3500 292° West 460 529 40,000  Level Anchorage Center
07:11PM 57.4667 -150.5833 285° West 460 529 40,000  Level Anchorage Center
07:12PM 57.5000 -150.8000 286° West 460 529 40,000  Level Anchorage Center
07:13PM 57.5500 -151.0500 291° West 470 541 40,000  Level Anchorage Center
07:14PM 57.5833 -151.2833 285° West 460 529 40,000  Level Anchorage Center
07:15PM 57.6333 -151.5000 293° West 470 541 40,000  Level Anchorage Center
07:16PM 57.6667 -151.7333 285° West 460 529 40,000  Level Anchorage Center
07:17PM 57.7000 -151.9667 285° West 470 541 40,000  Level Anchorage Center
07:18PM 57.7500 -152.2167 291° West 480 552 40,000  Level Anchorage Center
07:19PM 57.7833 -152.4500 285° West 470 541 40,000  Level Anchorage Center
07:20PM 57.7833 -152.7000 270° West 480 552 40,000  Level Anchorage Center
07:21PM 57.8167 -152.9500 284° West 470 541 40,000  Level Anchorage Center
07:22PM 57.8167 -153.2000 270° West 480 552 40,000  Level Anchorage Center
07:23PM 57.8500 -153.4500 284° West 470 541 40,000  Level Anchorage Center
07:24PM 57.8500 -153.7000 270° West 480 552 40,000  Level Anchorage Center
07:25PM 57.8667 -153.9500 277° West 480 552 40,000  Level Anchorage Center
07:26PM 57.8833 -154.2167 277° West 480 552 40,000  Level Anchorage Center
07:27PM 57.9000 -154.4667 277° West 480 552 40,000  Level Anchorage Center
07:28PM 57.9167 -154.7167 277° West 490 564 40,000  Level Anchorage Center
07:29PM 57.9333 -155.0333 276° West 480 552 40,000  Level Anchorage Center
07:30PM 57.9500 -155.2833 277° West 490 564 40,000  Level Anchorage Center
07:31PM 57.9500 -155.5500 270° West 490 564 40,000  Level Anchorage Center
07:32PM 57.9667 -155.8000 277° West 490 564 40,000  Level Anchorage Center
07:33PM 57.9833 -156.0667 277° West 500 575 40,000  Level Anchorage Center
07:34PM 58.0000 -156.3333 277° West 500 575 40,000  Level Anchorage Center
07:35PM 58.0000 -156.6000 270° West 500 575 40,000  Level Anchorage Center
07:36PM 58.0167 -156.8000 279° West 500 575 40,000  Level Anchorage Center
07:37PM 58.0167 -157.1167 270° West 490 564 40,000  Level Anchorage Center
07:38PM 58.0333 -157.3833 277° West 490 564 40,000  Level Anchorage Center
07:39PM 58.0333 -157.6333 270° West 490 564 40,000  Level Anchorage Center
07:40PM 58.0500 -157.8500 278° West 490 564 40,000  Level Anchorage Center
07:41PM 58.0500 -158.1667 270° West 490 564 40,000  Level Anchorage Center
07:42PM 58.0667 -158.4333 277° West 490 564 40,000  Level Anchorage Center
07:43PM 58.0667 -158.6833 270° West 490 564 40,000  Level Anchorage Center
07:45PM 58.0833 -159.2167 274° West 500 575 40,000  Level Anchorage Center
07:46PM 58.0833 -159.4833 270° West 500 575 40,000  Level Anchorage Center
07:47PM 58.0833 -159.7333 270° West 480 552 40,000  Level Anchorage Center
07:48PM 58.1000 -160.0000 277° West 500 575 40,000  Level Anchorage Center
07:49PM 58.1000 -160.2667 270° West 500 575 40,000  Level Anchorage Center
07:50PM 58.1000 -160.4667 270° West 490 564 40,000  Level Anchorage Center
07:51PM 58.1000 -160.8000 270° West 500 575 40,000  Level Anchorage Center
07:53PM 58.1000 -161.3167 270° West 490 564 40,000  Level Anchorage Center
07:54PM 58.1000 -161.5333 270° West 490 564 40,000  Level Anchorage Center
07:55PM 58.1000 -161.8000 270° West 510 587 40,000  Level Anchorage Center
07:57PM 58.1000 -162.3500 270° West 500 575 40,000  Level Anchorage Center
07:58PM 58.1000 -162.6500 270° West 490 564 40,000  Level Anchorage Center
07:59PM 58.1000 -162.8667 270° West 500 575 40,000  Level Anchorage Center
08:00PM 58.1000 -163.1333 270° West 500 575 40,000  Level Anchorage Center
08:01PM 58.0833 -163.4000 263° West 500 575 40,000  Level Anchorage Center
08:02PM 58.0833 -163.6667 270° West 490 564 40,000  Level Anchorage Center
08:03PM 58.0833 -163.9833 270° West 500 575 40,000  Level Anchorage Center
08:04PM 58.0833 -164.2500 270° West 500 575 40,000  Level Anchorage Center
08:05PM 58.0667 -164.5167 263° West 500 575 40,000  Level Anchorage Center
08:06PM 58.0667 -164.7833 270° West 500 575 40,000  Level Anchorage Center
08:07PM 58.0500 -165.0500 263° West 510 587 40,000  Level Anchorage Center
08:08PM 58.0500 -165.3167 270° West 500 575 40,000  Level Anchorage Center
08:09PM 58.0167 -165.5667 256° West 500 575 40,000  Level Anchorage Center
08:10PM 58.0000 -165.8333 263° West 500 575 40,000  Level Anchorage Center
08:11PM 57.9833 -166.1000 263° West 490 564 40,000  Level Anchorage Center
08:12PM 57.9667 -166.3333 262° West 500 575 40,000  Level Anchorage Center
08:13PM 57.9333 -166.6000 257° West 500 575 40,000  Level Anchorage Center
08:14PM 57.9167 -166.8500 263° West 490 564 40,000  Level Anchorage Center
08:15PM 57.8833 -167.1000 256° West 500 575 40,000  Level Anchorage Center
08:16PM 57.8667 -167.3667 263° West 500 575 40,000  Level Anchorage Center
08:17PM 57.8500 -167.6333 263° West 500 575 40,000  Level Anchorage Center
08:18PM 57.8167 -167.8833 256° West 500 575 40,000  Level Anchorage Center
08:19PM 57.8000 -168.1500 263° West 490 564 40,000  Level Anchorage Center
08:20PM 57.7667 -168.4000 256° West 500 575 40,000  Level Anchorage Center
08:21PM 57.7500 -168.6667 263° West 500 575 40,000  Level Anchorage Center
08:22PM 57.7167 -168.9333 257° West 500 575 40,000  Level Anchorage Center
08:23PM 57.7000 -169.1833 263° West 500 575 40,000  Level Anchorage Center
08:24PM 57.6667 -169.4500 257° West 500 575 40,000  Level Anchorage Center
08:25PM 57.6333 -169.7000 256° West 510 587 40,000  Level Anchorage Center
08:26PM 57.6000 -169.9667 257° West 510 587 40,000  Level Anchorage Center
08:27PM 57.5833 -170.2167 263° West 510 587 40,000  Level Anchorage Center
08:28PM 57.5500 -170.4667 256° West 510 587 40,000  Level Anchorage Center
08:29PM 57.5167 -170.7333 257° West 510 587 40,000  Level Anchorage Center
08:30PM 57.4833 -170.9833 256° West 500 575 40,000  Level Anchorage Center
08:31PM 57.4500 -171.2500 257° West 510 587 40,000  Level Anchorage Center
08:32PM 57.4167 -171.5000 256° West 500 575 40,000  Level Anchorage Center
08:33PM 57.3833 -171.7500 256° West 500 575 40,000  Level Anchorage Center
08:35PM 57.3167 -172.2667 257° West 510 587 40,000  Level Anchorage Center
08:36PM 57.2833 -172.5167 256° West 500 575 40,000  Level Anchorage Center
08:37PM 57.2500 -172.7667 256° West 500 575 40,000  Level Anchorage Center
08:38PM 57.2167 -173.0167 256° West 500 575 40,000  Level Anchorage Center
08:39PM 57.1833 -173.2833 257° West 500 575 40,000  Level Anchorage Center
08:40PM 57.1500 -173.5333 256° West 490 564 40,000  Level Anchorage Center
08:41PM 57.1167 -173.7833 256° West 500 575 40,000  Level Anchorage Center
08:42PM 57.0833 -174.0167 255° West 500 575 40,000  Level Anchorage Center
08:43PM 57.0333 -174.2833 251° West 500 575 40,000  Level Anchorage Center
08:44PM 57.0000 -174.5167 255° West 500 575 40,000  Level Anchorage Center
08:45PM 56.9667 -174.7667 256° West 500 575 40,000  Level Anchorage Center
08:47PM 56.9259 -175.0261 254° West  Level FlightAware Approximate
08:51PM 56.7333 -176.1833 255° West 494 568 40,000  Level Anchorage Center
08:52PM 56.7167 -176.3000 253° West 507 583 40,000  Level Anchorage Center
08:54PM 56.6643 -176.5913 252° West  Level FlightAware Approximate
08:55PM 56.6240 -176.8123 252° West  Level FlightAware Approximate
08:56PM 56.5834 -177.0329 252° West  Level FlightAware Approximate
08:57PM 56.5065 -177.4871 252° West 494 568 40,000  Level FlightAware Transoceanic
08:58PM 56.4631 -177.7229 251° West 494 568 40,000  Level FlightAware Transoceanic
08:59PM 56.4128 -177.9924 251° West 507 583 40,000  Level FlightAware Transoceanic
09:00PM 56.3676 -178.2319 251° West 507 583 40,000  Level FlightAware Transoceanic
09:01PM 56.3219 -178.4709 251° West 507 583 40,000  Level FlightAware Transoceanic
09:01PM 56.3167 -178.5000 251° West 505 581 40,000  Level Anchorage Center
09:02PM 56.2757 -178.7093 251° West 507 583 40,000  Level FlightAware Transoceanic
09:03PM 56.2290 -178.9471 250° West 507 583 40,000  Level FlightAware Transoceanic
09:04PM 56.1819 -179.1843 250° West 507 583 40,000  Level FlightAware Transoceanic
09:05PM 56.1344 -179.4210 250° West 507 583 40,000  Level FlightAware Transoceanic
09:06PM 56.0864 -179.6570 250° West 507 583 40,000  Level FlightAware Transoceanic
09:07PM 56.0332 -179.9168 250° West 505 581 40,000  Level FlightAware Transoceanic
09:08PM 55.9845 179.8492 249° West 505 581 40,000  Level FlightAware Transoceanic
09:09PM 55.9352 179.6157 249° West 505 581 40,000  Level FlightAware Transoceanic
09:10PM 55.8855 179.3828 249° West 505 581 40,000  Level FlightAware Transoceanic
09:10PM 55.8500 179.2333 249° West 505 581 40,000  Level Anchorage Center
09:11PM 55.8354 179.1505 249° West 505 581 40,000  Level FlightAware Transoceanic
09:12PM 55.7848 178.9188 249° West 505 581 40,000  Level FlightAware Transoceanic
09:13PM 55.7338 178.6877 248° West 505 581 40,000  Level FlightAware Transoceanic
09:14PM 55.6824 178.4572 248° West 505 581 40,000  Level FlightAware Transoceanic
09:15PM 55.6306 178.2274 248° West 505 581 40,000  Level FlightAware Transoceanic
09:16PM 55.5783 177.9981 248° West 505 581 40,000  Level FlightAware Transoceanic
09:17PM 55.5379 177.8342 248° West 505 581 40,000  Level FlightAware Transoceanic
09:18PM 55.4843 177.6032 248° West 505 581 40,000  Level FlightAware Transoceanic
09:18PM 55.4500 177.4333 247° West 510 587 40,000  Level Anchorage Center
09:19PM 55.4303 177.3728 247° West 505 581 40,000  Level FlightAware Transoceanic
09:19PM 55.4000 177.2500 244° Southwest 500 575 40,000  Level Anchorage Center
09:20PM 55.3759 177.1431 247° West 505 581 40,000  Level FlightAware Transoceanic
09:20PM 55.3333 177.0000 245° Southwest 500 575 40,000  Level Anchorage Center
09:21PM 55.3210 176.9140 247° West 505 581 40,000  Level FlightAware Transoceanic
09:21PM 55.2833 176.8000 246° West 500 575 40,000  Level Anchorage Center
09:22PM 55.2658 176.6855 247° West 505 581 40,000  Level FlightAware Transoceanic
09:22PM 55.2333 176.5500 251° West 500 575 40,000  Level Anchorage Center
09:23PM 55.2101 176.4576 247° West 505 581 40,000  Level FlightAware Transoceanic
09:23PM 55.1833 176.3500 246° West 510 587 40,000  Level Anchorage Center
09:24PM 55.1167 176.1167 244° Southwest 500 575 40,000  Level Anchorage Center
09:25PM 55.0667 175.8667 251° West 510 587 40,000  Level Anchorage Center
09:26PM 55.0167 175.6667 247° West 500 575 40,000  Level Anchorage Center
09:27PM 54.9500 175.4333 244° Southwest 500 575 40,000  Level Anchorage Center
09:28PM 54.9000 175.2333 247° West 500 575 40,000  Level Anchorage Center
09:29PM 54.8333 175.0000 244° Southwest 500 575 40,000  Level Anchorage Center
09:30PM 54.7833 174.8000 247° West 510 587 40,000  Level Anchorage Center
09:31PM 54.7167 174.5667 244° Southwest 500 575 40,000  Level Anchorage Center
09:32PM 54.6667 174.3667 247° West 500 575 40,000  Level Anchorage Center
09:33PM 54.6000 174.1333 244° Southwest 510 587 40,000  Level Anchorage Center
09:34PM 54.5333 173.9000 244° Southwest 500 575 40,000  Level Anchorage Center
09:35PM 54.4833 173.7000 247° West 500 575 40,000  Level Anchorage Center
09:36PM 54.4167 173.4667 244° Southwest 500 575 40,000  Level Anchorage Center
09:37PM 54.3667 173.2833 245° Southwest 510 587 40,000  Level Anchorage Center
09:38PM 54.3000 173.0500 244° Southwest 510 587 40,000  Level Anchorage Center
09:39PM 54.2500 172.8500 247° West 520 598 40,000  Level Anchorage Center
09:40PM 54.1833 172.6333 242° Southwest 490 564 40,000  Level Anchorage Center
09:41PM 54.1000 172.4167 237° Southwest 490 564 40,000  Level Anchorage Center
09:42PM 54.0167 172.2500 230° Southwest 500 575 40,000  Level Anchorage Center
09:43PM 53.9333 172.0333 237° Southwest 500 575 40,000  Level Anchorage Center
09:44PM 53.8667 171.8667 236° Southwest 510 587 40,000  Level Anchorage Center
09:45PM 53.7667 171.6667 230° Southwest 510 587 40,000  Level Anchorage Center
09:46PM 53.7000 171.5000 236° Southwest 500 575 40,000  Level Anchorage Center
09:47PM 53.6167 171.2833 237° Southwest 510 587 40,000  Level Anchorage Center
09:48PM 53.5167 171.0833 230° Southwest 510 587 40,000  Level Anchorage Center
09:49PM 53.4500 170.9167 236° Southwest 490 564 40,000  Level Anchorage Center
09:50PM 53.3667 170.7167 235° Southwest 490 564 40,000  Level Anchorage Center
09:51PM 53.2833 170.5500 230° Southwest 500 575 40,000  Level Anchorage Center
09:52PM 53.2000 170.3500 235° Southwest 510 587 40,000  Level Anchorage Center
09:53PM 53.1167 170.1833 230° Southwest 510 587 40,000  Level Anchorage Center
09:54PM 53.0333 169.9833 235° Southwest 500 575 40,000  Level Anchorage Center
09:55PM 52.9500 169.7833 235° Southwest 500 575 40,000  Level Anchorage Center
09:56PM 52.9000 169.6000 246° West 490 564 40,000  Level Anchorage Center
09:57PM 52.8333 169.3833 243° Southwest 500 575 40,000  Level Anchorage Center
09:58PM 52.7667 169.2167 237° Southwest 500 575 40,000  Level Anchorage Center
09:59PM 52.7000 169.0000 243° Southwest 500 575 40,000  Level Anchorage Center
10:00PM 52.6333 168.8333 237° Southwest 490 564 40,000  Level Anchorage Center
10:01PM 52.5500 168.6167 238° Southwest 510 587 40,000  Level Anchorage Center
10:02PM 52.5000 168.4500 244° Southwest 500 575 40,000  Level Anchorage Center
10:03PM 52.4167 168.2333 238° Southwest 490 564 40,000  Level Anchorage Center
10:04PM 52.3500 168.0333 241° Southwest 480 552 40,000  Level Anchorage Center
10:05PM 52.3000 167.8500 246° West 480 552 40,000  Level Anchorage Center
10:06PM 52.2167 167.6500 236° Southwest 500 575 40,000  Level Anchorage Center
10:09PM 52.1156 167.3748 239° Southwest  Level FlightAware Approximate
10:16PM 51.6511 166.1477 239° Southwest  Level FlightAware Approximate
10:17PM 51.5837 165.9744 238° Southwest  Level FlightAware Approximate
10:17PM 51.4333 165.5500 238° Southwest 482 555 40,000  Level Anchorage Center
10:18PM 51.5160 165.8017 238° Southwest  Level FlightAware Approximate
10:18PM 51.4167 165.5333 238° Southwest 478 550 40,000  Level Anchorage Center
10:19PM 51.4482 165.6295 238° Southwest  Level FlightAware Approximate
10:20PM 51.3808 165.4570 238° Southwest  Level FlightAware Approximate
10:21PM 51.3138 165.2844 238° Southwest  Level FlightAware Approximate
10:22PM 51.2465 165.1123 238° Southwest  Level FlightAware Approximate
10:23PM 51.1791 164.9407 238° Southwest  Level FlightAware Approximate
10:24PM 51.0096 164.5188 237° Southwest 478 550 40,000  Level FlightAware Transoceanic
10:24PM 50.9500 164.3833 237° Southwest 474 545 40,000  Level Anchorage Center
10:25PM 50.9409 164.3515 237° Southwest 478 550 40,000  Level FlightAware Transoceanic
10:26PM 50.8719 164.1846 237° Southwest 478 550 40,000  Level FlightAware Transoceanic
10:27PM 50.8027 164.0183 237° Southwest 478 550 40,000  Level FlightAware Transoceanic
10:27PM 50.7333 163.8333 236° Southwest 472 543 40,000  Level Anchorage Center
10:28PM 50.7333 163.8524 236° Southwest 478 550 40,000  Level FlightAware Transoceanic
10:29PM 50.6637 163.6871 236° Southwest 478 550 40,000  Level FlightAware Transoceanic
10:30PM 50.5310 163.3822 236° Southwest 474 545 40,000  Level FlightAware Transoceanic
10:31PM 50.4604 163.2171 236° Southwest 474 545 40,000  Level FlightAware Transoceanic
10:32PM 50.3895 163.0524 236° Southwest 474 545 40,000  Level FlightAware Transoceanic
10:33PM 50.3184 162.8883 236° Southwest 474 545 40,000  Level FlightAware Transoceanic
10:34PM 50.2408 162.6917 235° Southwest 472 543 40,000  Level FlightAware Transoceanic
10:35PM 50.1696 162.5306 235° Southwest 472 543 40,000  Level FlightAware Transoceanic
10:36PM 50.0981 162.3699 235° Southwest 472 543 40,000  Level FlightAware Transoceanic
10:37PM 50.0264 162.2097 235° Southwest 472 543 40,000  Level FlightAware Transoceanic
10:37PM 50.0333 162.2333 235° Southwest 465 535 40,000  Level Anchorage Center
10:38PM 49.9545 162.0500 235° Southwest 472 543 40,000  Level FlightAware Transoceanic
10:39PM 49.8823 161.8907 235° Southwest 472 543 40,000  Level FlightAware Transoceanic
10:40PM 49.8100 161.7320 235° Southwest 472 543 40,000  Level FlightAware Transoceanic
10:41PM 49.7374 161.5737 235° Southwest 472 543 40,000  Level FlightAware Transoceanic
10:42PM 49.6646 161.4159 234° Southwest 472 543 40,000  Level FlightAware Transoceanic
10:43PM 49.5957 161.2719 234° Southwest 465 535 40,000  Level FlightAware Transoceanic
10:44PM 49.5220 161.1133 234° Southwest 465 535 40,000  Level FlightAware Transoceanic
10:44PM 49.4833 161.0333 234° Southwest 456 525 40,000  Level Anchorage Center
10:45PM 49.4480 160.9552 234° Southwest 465 535 40,000  Level FlightAware Transoceanic
10:46PM 49.3739 160.7976 234° Southwest 465 535 40,000  Level FlightAware Transoceanic
10:46PM 49.3167 160.6833 234° Southwest 442 509 40,000  Level Anchorage Center
10:47PM 49.2995 160.6405 234° Southwest 465 535 40,000  Level FlightAware Transoceanic
10:48PM 49.2250 160.4838 234° Southwest 465 535 40,000  Level FlightAware Transoceanic
10:49PM 49.1502 160.3276 234° Southwest 465 535 40,000  Level FlightAware Transoceanic
10:50PM 49.0752 160.1719 234° Southwest 465 535 40,000  Level FlightAware Transoceanic
10:51PM 49.0000 160.0167 233° Southwest 456 525 40,000  Level FlightAware Transoceanic
10:52PM 48.9314 159.8768 233° Southwest 456 525 40,000  Level FlightAware Transoceanic
10:53PM 48.8655 159.7430 233° Southwest 442 509 40,000  Level FlightAware Transoceanic
10:54PM 48.7980 159.6067 233° Southwest 442 509 40,000  Level FlightAware Transoceanic
10:55PM 48.7304 159.4708 233° Southwest 442 509 40,000  Level FlightAware Transoceanic
10:56PM 48.6626 159.3352 233° Southwest 442 509 40,000  Level FlightAware Transoceanic
10:57PM 48.5947 159.2000 233° Southwest 442 509 40,000  Level FlightAware Transoceanic
10:58PM 48.5265 159.0652 233° Southwest 442 509 40,000  Level FlightAware Transoceanic
10:59PM 48.4583 158.9307 232° Southwest 442 509 40,000  Level FlightAware Transoceanic
11:00PM 48.3898 158.7966 232° Southwest 442 509 40,000  Level FlightAware Transoceanic
11:01PM 48.3213 158.6628 232° Southwest 442 509 40,000  Level FlightAware Transoceanic
11:02PM 48.2525 158.5294 232° Southwest 442 509 40,000  Level FlightAware Transoceanic
11:03PM 48.1836 158.3964 232° Southwest 442 509 40,000  Level FlightAware Transoceanic
11:04PM 48.1146 158.2637 232° Southwest 442 509 40,000  Level FlightAware Transoceanic
11:05PM 48.0454 158.1314 232° Southwest 442 509 40,000  Level FlightAware Transoceanic
11:06PM 47.9760 157.9995 232° Southwest 442 509 40,000  Level FlightAware Transoceanic
11:07PM 47.9065 157.8679 232° Southwest 442 509 40,000  Level FlightAware Transoceanic
11:08PM 47.8369 157.7366 232° Southwest 442 509 40,000  Level FlightAware Transoceanic
11:09PM 47.7671 157.6057 232° Southwest 442 509 40,000  Level FlightAware Transoceanic
11:10PM 47.6971 157.4752 231° Southwest 442 509 40,000  Level FlightAware Transoceanic
11:11PM 47.6270 157.3450 231° Southwest 442 509 40,000  Level FlightAware Transoceanic
11:12PM 47.5568 157.2151 231° Southwest 442 509 40,000  Level FlightAware Transoceanic
11:13PM 47.4864 157.0856 231° Southwest 442 509 40,000  Level FlightAware Transoceanic
11:14PM 47.4159 156.9565 231° Southwest 442 509 40,000  Level FlightAware Transoceanic
11:15PM 47.3452 156.8277 231° Southwest 442 509 40,000  Level FlightAware Transoceanic
11:16PM 47.2744 156.6992 231° Southwest 442 509 40,000  Level FlightAware Transoceanic
11:17PM 47.2034 156.5711 231° Southwest 442 509 40,000  Level FlightAware Transoceanic
11:18PM 47.1323 156.4433 231° Southwest 442 509 40,000  Level FlightAware Transoceanic
11:19PM 47.0611 156.3159 231° Southwest 442 509 40,000  Level FlightAware Transoceanic
11:20PM 46.9897 156.1888 230° Southwest 442 509 40,000  Level FlightAware Transoceanic
11:21PM 46.9181 156.0620 230° Southwest 442 509 40,000  Level FlightAware Transoceanic
11:22PM 46.8465 155.9356 230° Southwest 442 509 40,000  Level FlightAware Transoceanic
11:23PM 46.7747 155.8095 230° Southwest 442 509 40,000  Level FlightAware Transoceanic
11:24PM 46.7027 155.6838 230° Southwest 442 509 40,000  Level FlightAware Transoceanic
11:25PM 46.6306 155.5584 230° Southwest 442 509 40,000  Level FlightAware Transoceanic
11:26PM 46.5584 155.4333 230° Southwest 442 509 40,000  Level FlightAware Transoceanic
11:27PM 46.4860 155.3085 230° Southwest 442 509 40,000  Level FlightAware Transoceanic
11:28PM 46.4135 155.1841 230° Southwest 442 509 40,000  Level FlightAware Transoceanic
11:29PM 46.3409 155.0600 230° Southwest 442 509 40,000  Level FlightAware Transoceanic
11:30PM 46.2682 154.9363 230° Southwest 442 509 40,000  Level FlightAware Transoceanic
11:31PM 46.1953 154.8129 229° Southwest 442 509 40,000  Level FlightAware Transoceanic
11:32PM 46.1222 154.6898 229° Southwest 442 509 40,000  Level FlightAware Transoceanic
11:33PM 46.0491 154.5670 229° Southwest 442 509 40,000  Level FlightAware Transoceanic
11:34PM 45.9758 154.4446 229° Southwest 442 509 40,000  Level FlightAware Transoceanic
11:35PM 45.9024 154.3224 229° Southwest 442 509 40,000  Level FlightAware Transoceanic
11:36PM 45.8288 154.2007 229° Southwest 442 509 40,000  Level FlightAware Transoceanic
11:37PM 45.7551 154.0792 229° Southwest 442 509 40,000  Level FlightAware Transoceanic
11:38PM 45.6813 153.9580 229° Southwest 442 509 40,000  Level FlightAware Transoceanic
11:39PM 45.6074 153.8372 229° Southwest 442 509 40,000  Level FlightAware Transoceanic
11:40PM 45.5155 153.7152 223° Southwest  Level FlightAware Approximate
11:41PM 45.5065 153.7003 228° Southwest  Level FlightAware Approximate
11:42PM 45.4231 153.5667 228° Southwest  Level FlightAware Approximate
11:43PM 45.3396 153.4335 228° Southwest  Level FlightAware Approximate
11:44PM 45.2559 153.3007 228° Southwest  Level FlightAware Approximate
11:45PM 45.1720 153.1683 228° Southwest  Level FlightAware Approximate
11:46PM 45.0880 153.0363 228° Southwest  Level FlightAware Approximate
11:47PM 45.0038 152.9047 228° Southwest  Level FlightAware Approximate
11:48PM 44.9195 152.7734 228° Southwest  Level FlightAware Approximate
11:49PM 44.8350 152.6426 228° Southwest  Level FlightAware Approximate
11:50PM 44.7504 152.5121 228° Southwest  Level FlightAware Approximate
11:51PM 44.6657 152.3820 228° Southwest  Level FlightAware Approximate
11:52PM 44.5808 152.2523 227° Southwest  Level FlightAware Approximate
11:53PM 44.4957 152.1230 227° Southwest  Level FlightAware Approximate
11:54PM 44.4105 151.9940 227° Southwest  Level FlightAware Approximate
11:55PM 44.3252 151.8654 227° Southwest  Level FlightAware Approximate
11:56PM 44.2397 151.7372 227° Southwest  Level FlightAware Approximate
11:57PM 44.1541 151.6094 227° Southwest  Level FlightAware Approximate
11:58PM 44.0683 151.4819 227° Southwest  Level FlightAware Approximate
11:59PM 43.9824 151.3548 227° Southwest  Level FlightAware Approximate
12:00AM 43.8963 151.2281 227° Southwest  Level FlightAware Approximate
12:01AM 43.8101 151.1017 227° Southwest  Level FlightAware Approximate
12:02AM 43.7238 150.9758 227° Southwest  Level FlightAware Approximate
12:03AM 43.6373 150.8501 226° Southwest  Level FlightAware Approximate
12:04AM 43.5507 150.7249 226° Southwest  Level FlightAware Approximate
12:05AM 43.4640 150.5999 226° Southwest  Level FlightAware Approximate
12:06AM 43.3771 150.4754 226° Southwest  Level FlightAware Approximate
12:07AM 43.2901 150.3512 226° Southwest  Level FlightAware Approximate
12:08AM 43.2029 150.2274 226° Southwest  Level FlightAware Approximate
12:09AM 43.1157 150.1039 226° Southwest  Level FlightAware Approximate
12:10AM 43.0283 149.9807 226° Southwest  Level FlightAware Approximate
12:11AM 42.9407 149.8579 226° Southwest  Level FlightAware Approximate
12:12AM 42.8530 149.7355 226° Southwest  Level FlightAware Approximate
12:13AM 42.7652 149.6134 226° Southwest  Level FlightAware Approximate
12:14AM 42.6773 149.4917 226° Southwest  Level FlightAware Approximate
12:15AM 42.5892 149.3703 225° Southwest  Level FlightAware Approximate
12:16AM 42.5015 149.2499 225° Southwest  Level FlightAware Approximate
12:17AM 42.4137 149.1299 225° Southwest  Level FlightAware Approximate
12:18AM 42.3258 149.0102 225° Southwest  Level FlightAware Approximate
12:18AM 42.6280 149.4130 225° Southwest 391 450 40,000  Level FlightAware
12:19AM 42.2378 148.8909 225° Southwest  Level FlightAware Approximate
12:19AM 42.5650 149.3280 225° Southwest 391 450 40,000  Level FlightAware
12:20AM 42.1496 148.7719 225° Southwest  Level FlightAware Approximate
12:20AM 42.5250 149.2730 225° Southwest 391 450 40,000  Level FlightAware
12:21AM 42.4330 149.1470 225° Southwest 397 457 40,000  Level FlightAware
12:21AM 42.3800 149.0750 225° Southwest 398 458 40,000  Level FlightAware
12:22AM 42.3000 148.9660 225° Southwest 399 459 40,000  Level FlightAware
12:23AM 42.2550 148.9040 226° Southwest 400 460 40,000  Level FlightAware
12:23AM 42.2140 148.8500 224° Southwest 405 466 40,000  Level FlightAware
12:24AM 42.1670 148.7860 225° Southwest 406 467 40,000  Level FlightAware
12:25AM 42.0760 148.6640 225° Southwest 405 466 40,000  Level FlightAware
12:26AM 42.0340 148.6090 224° Southwest 405 466 40,000  Level FlightAware
12:26AM 42.0020 148.5660 225° Southwest 405 466 40,000  Level FlightAware
12:27AM 41.9350 148.4760 225° Southwest 407 468 40,000  Level FlightAware
12:28AM 41.8810 148.4040 225° Southwest 408 470 40,000  Level FlightAware
12:29AM 41.8070 148.3070 224° Southwest 408 470 40,000  Level FlightAware
12:29AM 41.7600 148.2450 225° Southwest 408 470 40,000  Level FlightAware
12:30AM 41.7190 148.1910 225° Southwest 408 470 40,000  Level FlightAware
12:31AM 41.6450 148.0950 224° Southwest 408 470 40,000  Level FlightAware
12:31AM 41.5970 148.0340 224° Southwest 408 470 40,000  Level FlightAware
12:32AM 41.5150 147.9290 224° Southwest 404 465 40,000  Level FlightAware
12:33AM 41.4410 147.8330 224° Southwest 405 466 40,000  Level FlightAware
12:34AM 41.3720 147.7450 224° Southwest 405 466 40,000  Level FlightAware
12:35AM 41.2910 147.6420 224° Southwest 405 466 40,000  Level FlightAware
12:35AM 41.2480 147.5880 223° Southwest 405 466 40,000  Level FlightAware
12:36AM 41.1720 147.4910 224° Southwest 405 466 40,000  Level FlightAware
12:37AM 41.0960 147.3960 223° Southwest 405 466 40,000  Level FlightAware
12:38AM 41.0490 147.3360 224° Southwest 406 467 40,000  Level FlightAware
12:38AM 40.9930 147.2660 223° Southwest 408 470 40,000  Level FlightAware
12:39AM 40.9230 147.1790 223° Southwest 410 472 40,000  Level FlightAware
12:40AM 40.8750 147.1180 224° Southwest 408 470 40,000  Level FlightAware
12:40AM 40.8320 147.0660 222° Southwest 408 470 40,000  Level FlightAware
12:41AM 40.7620 146.9790 223° Southwest 416 479 40,000  Level FlightAware
12:42AM 40.7200 146.9270 223° Southwest 416 479 40,000  Level FlightAware
12:42AM 40.6710 146.8660 223° Southwest 416 479 40,000  Level FlightAware
12:43AM 40.6380 146.8250 223° Southwest 417 480 40,000  Level FlightAware
12:43AM 40.5880 146.7630 223° Southwest 416 479 40,000  Level FlightAware
12:44AM 40.5410 146.7060 223° Southwest 416 479 40,000  Level FlightAware
12:45AM 40.4820 146.6330 223° Southwest 414 476 40,000  Level FlightAware
12:45AM 40.4070 146.5410 223° Southwest 406 467 40,000  Level FlightAware
12:46AM 40.3640 146.4890 223° Southwest 407 468 40,000  Level FlightAware
12:47AM 40.3020 146.4130 223° Southwest 413 475 40,000  Level FlightAware
12:48AM 40.2310 146.3290 222° Southwest 413 475 40,000  Level FlightAware
12:49AM 40.1390 146.2160 223° Southwest 414 476 40,000  Level FlightAware
12:49AM 40.0830 146.1480 223° Southwest 414 476 40,000  Level FlightAware
12:50AM 40.0480 146.1060 223° Southwest 415 478 40,000  Level FlightAware
12:50AM 39.9990 146.0470 223° Southwest 415 478 40,000  Level FlightAware
12:51AM 39.9280 145.9630 222° Southwest 416 479 40,000  Level FlightAware
12:52AM 39.8350 145.8520 223° Southwest 418 481 40,000  Level FlightAware
12:53AM 39.7890 145.7970 223° Southwest 418 481 40,000  Level FlightAware
12:53AM 39.7440 145.7450 222° Southwest 418 481 40,000  Level FlightAware
12:55AM 39.6550 145.6400 222° Southwest 418 481 40,000  Level FlightAware
12:55AM 39.6110 145.5890 222° Southwest 418 481 40,000  Level FlightAware
12:56AM 39.5670 145.5370 222° Southwest 418 481 40,000  Level FlightAware
12:56AM 39.5230 145.4860 222° Southwest 418 481 40,000  Level FlightAware
12:57AM 39.4790 145.4350 222° Southwest 418 481 40,000  Level FlightAware
12:58AM 39.4350 145.3830 222° Southwest 418 481 40,000  Level FlightAware
12:59AM 39.2760 145.1930 223° Southwest 414 476 40,000  Level FlightAware
12:59AM 39.2350 145.1460 222° Southwest 414 476 40,000  Level FlightAware
01:00AM 39.2060 145.1120 222° Southwest 414 476 40,000  Level FlightAware
01:00AM 39.1250 145.0180 222° Southwest 416 479 40,000  Level FlightAware
01:01AM 39.0730 144.9570 222° Southwest 417 480 40,000  Level FlightAware
01:02AM 39.0100 144.8840 222° Southwest 417 480 40,000  Level FlightAware
01:03AM 38.8810 144.7770 213° Southwest 423 487 40,000  Level FlightAware
01:04AM 38.8330 144.7320 216° Southwest 423 487 40,000  Level FlightAware
01:04AM 38.7780 144.6840 214° Southwest 431 496 40,000  Level FlightAware
01:04AM 38.7580 144.6660 215° Southwest 431 496 40,000  Level FlightAware
01:06AM 38.6140 144.5370 215° Southwest 432 497 40,000  Level FlightAware
01:06AM 38.5740 144.5000 216° Southwest 432 497 40,000  Level FlightAware
01:07AM 38.5200 144.4520 215° Southwest 432 497 40,000  Level FlightAware
01:07AM 38.4670 144.4040 215° Southwest 432 497 40,000  Level FlightAware
01:08AM 38.4070 144.3510 215° Southwest 432 497 40,000  Level FlightAware
01:09AM 38.2870 144.2430 215° Southwest 432 497 40,000  Level FlightAware
01:10AM 38.2460 144.2070 215° Southwest 433 498 40,000  Level FlightAware
01:10AM 38.1720 144.1410 215° Southwest 433 498 40,000  Level FlightAware
01:11AM 38.0650 144.0470 215° Southwest 435 501 40,000  Level FlightAware
01:12AM 37.9820 143.9740 215° Southwest 436 502 40,000  Level FlightAware
01:13AM 37.8970 143.8990 215° Southwest 432 497 40,000  Level FlightAware
01:14AM 37.8330 143.8420 215° Southwest 433 498 40,000  Level FlightAware
01:15AM 37.7320 143.7540 215° Southwest 433 498 40,000  Level FlightAware
01:15AM 37.6680 143.6980 215° Southwest 434 499 40,000  Level FlightAware
01:16AM 37.5980 143.6370 215° Southwest 435 501 40,000  Level FlightAware
01:17AM 37.5060 143.5570 215° Southwest 435 501 40,000  Level FlightAware
01:18AM 37.3950 143.4610 215° Southwest 433 498 40,000  Level FlightAware
01:19AM 37.3280 143.4030 215° Southwest 432 497 40,000  Level FlightAware
01:20AM 37.2360 143.3240 214° Southwest 432 497 40,000  Level FlightAware
01:20AM 37.2220 143.3120 214° Southwest 432 497 40,000  Level FlightAware
01:21AM 37.1210 143.2250 214° Southwest 40,000  Level FlightAware
01:21AM 37.0660 143.1790 214° Southwest 434 499 40,000  Level FlightAware
01:22AM 36.9970 143.1170 216° Southwest 439 505 40,000  Level FlightAware
01:23AM 36.8910 143.0140 218° Southwest 432 497 40,000  Level FlightAware
01:24AM 36.8420 142.9660 218° Southwest 432 497 40,000  Level FlightAware
01:24AM 36.8020 142.9270 218° Southwest 432 497 40,000  Level FlightAware
01:25AM 36.6810 142.8110 218° Southwest 444 511 40,000  Level FlightAware
01:26AM 36.6160 142.7490 217° Southwest 444 511 40,000  Level FlightAware
01:27AM 36.5520 142.6880 217° Southwest 444 511 40,000  Level FlightAware
01:27AM 36.4860 142.6240 218° Southwest 443 510 40,000  Level FlightAware
01:28AM 36.4370 142.5780 217° Southwest 435 501 40,000  Level FlightAware
01:28AM 36.3800 142.5230 218° Southwest 434 499 40,000 -480 Level FlightAware
01:29AM 36.3180 142.4640 217° Southwest 433 498 39,400 -1,140 Descending FlightAware
01:30AM 36.2590 142.4080 217° Southwest 432 497 38,600 -1,860 Descending FlightAware
01:30AM 36.2110 142.3620 218° Southwest 435 501 37,400 -2,580 Descending FlightAware
01:31AM 36.1130 142.2700 217° Southwest 444 511 34,800 -2,700 Descending FlightAware
01:32AM 36.0440 142.2050 217° Southwest 444 511 32,700 -2,820 Descending FlightAware
01:32AM 36.0010 142.1440 229° Southwest 436 502 31,300 -3,360 Descending FlightAware
01:33AM 35.9850 142.0550 257° West 454 522 29,100 -3,360 Descending FlightAware
01:34AM 35.9740 141.9540 262° West 449 517 27,100 -2,820 Descending FlightAware
01:34AM 35.9640 141.8670 262° West 444 511 25,600 -2,640 Descending FlightAware
01:35AM 35.9520 141.7540 263° West 434 499 23,600 -2,820 Descending FlightAware
01:35AM 35.9440 141.6800 262° West 431 496 22,100 -2,820 Descending FlightAware
01:36AM 35.9340 141.5960 262° West 414 476 20,600 -2,760 Descending FlightAware
01:37AM 35.9260 141.5220 262° West 407 468 18,900 -3,060 Descending FlightAware
01:37AM 35.9150 141.4300 262° West 392 451 16,900 -3,060 Descending FlightAware
01:38AM 35.9000 141.3000 262° West 372 428 14,000 -2,760 Descending FlightAware
01:39AM 35.8930 141.2370 262° West 362 417 12,700 -1,920 Descending FlightAware
01:39AM 35.8850 141.1610 263° West 323 372 11,700 -1,380 Descending FlightAware
01:40AM 35.8800 141.1090 263° West 295 339 11,100 -1,140 Descending FlightAware
01:41AM 35.8730 141.0280 264° West 274 315 10,200 -1,140 Descending FlightAware
01:41AM 35.8690 140.9810 264° West 272 313 9,600 -1,200 Descending FlightAware
01:42AM 35.8640 140.9350 262° West 269 310 9,000 -1,200 Descending FlightAware
01:42AM 35.8580 140.8750 263° West 266 306 8,200 -1,140 Descending FlightAware
01:43AM 35.8550 140.8390 264° West 259 298 7,800 -720 Descending FlightAware
01:43AM 35.8530 140.7890 267° West 244 281 7,500 -600 Descending FlightAware
01:44AM 35.8650 140.7240 283° West 227 261 7,000 -840 Descending FlightAware
01:45AM 35.8850 140.6790 299° West 231 266 6,300 -1,140 Descending FlightAware
01:45AM 35.9010 140.6430 299° West 237 273 5,700 -1,200 Descending FlightAware
01:46AM 35.9140 140.6140 299° West 241 277 5,200 -1,020 Descending FlightAware
01:46AM 35.9330 140.5710 299° West 242 278 4,700 -780 Descending FlightAware
01:47AM 35.9440 140.5190 285° West 225 259 4,300 -420 Descending FlightAware
01:48AM 35.9500 140.4690 278° West 215 247 4,200 -240 Descending FlightAware
01:48AM 35.9540 140.4410 280° West 198 228 4,100 -780 Descending FlightAware
01:49AM 35.9610 140.3900 280° West 202 232 3,300 -960 Descending FlightAware
01:50AM 35.9680 140.3470 281° West 185 213 2,800 -900 Descending FlightAware
01:50AM 35.9550 140.3220 237° Southwest 157 181 2,300 -780 Descending FlightAware
01:51AM 35.9330 140.3070 209° Southwest 150 173 2,000 -300 Descending FlightAware
01:51AM 35.9120 140.3030 189° South 149 171 2,000  Level FlightAware
01:52AM 35.8850 140.3200 153° Southeast 139 160 2,000 -300 Level FlightAware
01:53AM 35.8630 140.3370 148° Southeast 137 158 1,600 -600 Descending FlightAware
01:53AM 35.8420 140.3520 150° Southeast 127 146 1,200 -660 Descending FlightAware
01:54AM 35.8250 140.3640 150° Southeast 131 151 800 -720 Descending FlightAware
01:54AM 35.8100 140.3750 149° Southeast 135 155 500 -420 Descending FlightAware
01:55AM 35.7940 140.3870 149° Southeast 137 158 400 -180 Descending FlightAware